Webcam more information Webcam


avvertimento per Pioggia more information rain snow radar


altri nostri siti meteo:

RISCHIO INCENDIRischio incendi

Pomeziameteo 1Sito sul meteo

Pomeziameteo DashboardSito sul meteo

Caput FrigorisSito sul meteo

BarcellonameteoSito sul meteo

MeteoipassiSito sul meteo

TortoretometeolidoSito sul meteo

CastelnuovovomanometeoSito sul meteo

MeteogonzagaSito sul meteo

MeteonetworkInvio dai a Meteonetwork



Pioggia Da: 26-05-2019 01:00 Fino a: 27-05-2019 00:59 Avvertimento per: Pioggia Livello: Giallo info button

Report METAR

   
LIRV - Viterbo (it-Mil), Italy
Distanza dalla stazione: W 4 km
Dati ricevuti: 25-05-2019 20:55
DATI Obsoleti
Poche nuvole  
Poche nuvole  
   Vento: Variabile calma
Vento: Variabile calma
Temperatura: 15°C
P.to Rugiada: 14°C
Umidita: 94%
Barometro: 1014 hPa
Nuvole: Poche nuvole
Visibilita: oltre 10 km
dettagli cloud: Poche nuvole 457.2 m
LIRV 251855Z /////KT 9999 FEW015 15/14 Q1014
LIQN - Rieti, Italy
Distanza dalla stazione: E 59 km
Dati ricevuti: 25-05-2019 19:50
DATI Obsoleti
Poche nuvole  
Poche nuvole  
   Vento: Variabile 5.6 km/h
Vento: Variabile 5.6 km/h
Temperatura: 19°C
P.to Rugiada: 13°C
Umidita: 68%
Barometro: 1014 hPa
Nuvole: Poche nuvole
Visibilita: oltre 10 km
dettagli cloud: Poche nuvole 1463 m
LIQN 251750Z VRB03KT 9999 FEW048 19/13 Q1014
LIRU - Rome/Urbe (it-Af, Italy
Distanza dalla stazione: S 61 km
Dati ricevuti: 25-05-2019 19:50
DATI Obsoleti
Sereno  
Sereno  
   Vento: SW 7.4 km/h
Vento: SW 7.4 km/h
Temperatura: 19°C
P.to Rugiada: 16°C
Umidita: 83%
Barometro: 1014 hPa
Visibilita: oltre 10 km
dettagli cloud: Sereno
LIRU 251750Z 23004KT CAVOK 19/16 Q1014
LIRG - Guidonia (it-Afb, Italy
Distanza dalla stazione: SE 68 km
Dati ricevuti: 24-05-2019 19:55
DATI Obsoleti
Poche nuvole  
Poche nuvole  
   Vento: S 13 km/h
Vento: S 13 km/h
Temperatura: 19°C
P.to Rugiada: 14°C
Umidita: 73%
Barometro: 1014 hPa
Nuvole: Poche nuvole
Visibilita: oltre 10 km
dettagli cloud: Poche nuvole 914.4 m
LIRG 241755Z 21007KT 9999 FEW030 19/14 Q1014
LIRK - Terminillo Mount, Italy
Distanza dalla stazione: E 70 km
Dati ricevuti: 23-05-2019 11:55
DATI Obsoleti
  
  
   Vento: Variabile 7.4 km/h
Vento: Variabile 7.4 km/h
Temperatura: 9°C
Temperatura Vento: 8°C
P.to Rugiada: 6°C
Umidita: 82%
Barometro: 1021 hPa
LIRK 230955Z AUTO VRB04KT //// 09/06 Q1021
 

Script sviluppato da  Saratoga-weather.org Adattato per il modello da  Weerstation Leuven

Strumentazione usata:

Stazione meteo
Davis VP2

Programma gestore dati meteo
WVIEW

Server per i dati meteo
WDS-5

Davis VP2

WVIEW

WDS-5